VOCIVOCL

Guest
Details From VOCI - COCHIN INTL
To VOCL - CALICUT
Flight Number -
Tags decoded
Created
Modified
Stats Distance 65 nm / 120 km
Max Altitude 0 ft / 0 m
Waypoints 3
Social Downloads 3
Likes 0
Share VATSIM

Download

Looking for another format? Having issues loading an existing format? Contact us
Advertisement - Login to hide

Notes

Requested: VOCI CLC VOCL

Route

VOCI CLC VOCL

ID Type Via Altitude (ft/m) Position (lat/lon) Dist (leg/tot) Name
O VOCI APT - 0 / 0 10.15200 / 76.40191 - / 0 nm COCHIN INTL
CLC VOR - 0 / 0 11.13515 / 75.95485 64 / 64 nm CALICUT VOR-DME
O VOCL APT - 0 / 0 11.13684 / 75.95530 0 / 64 nm CALICUT

Altitude Profile

Advertisement - Login to hide

VOCI

Details ICAO VOCI (COK)
Name Cochin International Airport
Region India
Timezone Asia/Kolkata (UTC+5.5)
Stats Elevation 30 ft / 9 m (AMSL)
Location 10.151100° 76.400500°
Runways 1
Magnetic Variation 1.595° W

METAR

VOCI 160500Z 00000KT 5000 HZ FEW012 SCT018 BKN080 30/24 Q1013 NOSIG

Decode

TAF

TAF VOCI 152300Z 1600/1706 00000KT 3000 BR FEW012 FEW025CB BKN080 BECMG 1600/1603 06005KT 2000 BR BECMG 1604/1606 26010KT 5000 HZ SCT015 BKN080 TEMPO 1611/1615 2000 TSRA/RA SCT008 SCT012 FEW025CB BKN080 BECMG 1618/1620 VRB05KT 4000 BR SCT015 FEW025CB SCT080 TEMPO 1623/1703 08005KT 2000 BR SCT015 SCT080

Decode

Departure Runways

ID Width Length Bearing (true/mag) Surface Threshold Overrun Markings Lighting
09 147 ft / 45 m 11,166 ft / 3,403 m 87.85° / 89.44° ASPHALT 0 ft / 0 m 190 ft / 58 m APP CENTERLINE EDGE THRESHOLD MALSF
27 147 ft / 45 m 11,166 ft / 3,403 m 267.85° / 269.45° ASPHALT 0 ft / 0 m 190 ft / 58 m APP CENTERLINE EDGE THRESHOLD MALSF

VOCL

Details ICAO VOCL (CCJ)
Name Calicut International Airport
Region India
Timezone Asia/Kolkata (UTC+5.5)
Stats Elevation 340 ft / 104 m (AMSL)
Location 11.136000° 75.955600°
Runways 1
Magnetic Variation 1.433° W

METAR

VOCL 160500Z 31004KT 2000 -TSRA SCT003 SCT012 FEW025CB OVC080 26/23 Q1014 BECMG 3000 -TSRA BR

Decode

TAF

TAF VOCL 152300Z 1600/1706 09005KT 4000 BR FEW012 BKN080 BECMG 1600/1604 1000 BR BECMG 1606/1608 28010KT 6000 TEMPO 1612/1615 2500 TSRA/RA SCT006 SCT012 FEW025CB BKN080 BECMG 1618/1620 SCT012 FEW025CB BKN080 BECMG 1700/1704 07005KT 2000 BR SCT015 SCT080

Decode

Destination Runways

ID Width Length Bearing (true/mag) Surface Threshold Overrun Markings Lighting
10 148 ft / 45 m 9,392 ft / 2,863 m 100.99° / 102.42° ASPHALT 0 ft / 0 m 200 ft / 61 m PREC-APP CENTERLINE EDGE THRESHOLD MALSF
28 148 ft / 45 m 9,392 ft / 2,863 m 280.99° / 282.43° ASPHALT 0 ft / 0 m 197 ft / 60 m PREC-APP CENTERLINE EDGE THRESHOLD MALSF

Approach Navaids

Runway Type Ident Frequency Range Bearing (true/mag) Slope Elevation
28 GS ICAC 109.50 MHz 10 nm / 19 km 281.11° / 282.54 ° 3.20° 320 ft / 98 m (AMSL)
28 DME ICAC 109.50 MHz 18 nm / 33 km - - 342 ft / 104 m (AMSL)
28 LOC-ILS ICAC 109.50 MHz 18 nm / 33 km 275.76° / 277.19 ° - 311 ft / 95 m (AMSL)

Popular Alternatives